TimeEST,TemperatureF,Dew PointF,Humidity,Sea Level PressureIn,VisibilityMPH,Wind Direction,Wind SpeedMPH,Gust SpeedMPH,PrecipitationIn,Events,Conditions,WindDirDegrees,DateUTC
12:13 AM,23.9,23.2,97,30.16,10.0,Calm,Calm,-,N/A,,Clear,0,2012-11-08 05:13:00
12:33 AM,23.7,23.0,97,30.16,10.0,Calm,Calm,-,N/A,,Clear,0,2012-11-08 05:33:00
12:53 AM,23.5,22.8,97,30.17,10.0,Calm,Calm,-,N/A,,Clear,0,2012-11-08 05:53:00
1:13 AM,23.4,22.6,97,30.16,10.0,Calm,Calm,-,N/A,,Clear,0,2012-11-08 06:13:00
1:33 AM,21.7,20.8,96,30.16,10.0,Calm,Calm,-,N/A,,Clear,0,2012-11-08 06:33:00
1:53 AM,22.5,21.6,96,30.16,10.0,Calm,Calm,-,N/A,,Clear,0,2012-11-08 06:53:00
2:13 AM,22.6,21.9,97,30.16,10.0,Calm,Calm,-,N/A,,Clear,0,2012-11-08 07:13:00
2:33 AM,22.5,21.4,96,30.17,10.0,Calm,Calm,-,N/A,,Clear,0,2012-11-08 07:33:00
2:53 AM,21.9,21.0,96,30.17,10.0,Calm,Calm,-,N/A,,Clear,0,2012-11-08 07:53:00
3:13 AM,22.1,21.2,96,30.17,10.0,Calm,Calm,-,N/A,,Clear,0,2012-11-08 08:13:00
3:33 AM,21.4,20.5,96,30.17,10.0,Calm,Calm,-,N/A,,Clear,0,2012-11-08 08:33:00
3:53 AM,21.4,20.3,96,30.17,10.0,Calm,Calm,-,N/A,,Clear,0,2012-11-08 08:53:00
4:13 AM,21.2,20.3,96,30.17,10.0,Calm,Calm,-,N/A,,Clear,0,2012-11-08 09:13:00
4:33 AM,21.0,19.9,96,30.18,10.0,Calm,Calm,-,N/A,,Clear,0,2012-11-08 09:33:00
4:53 AM,21.0,19.9,96,30.18,10.0,Calm,Calm,-,N/A,,Clear,0,2012-11-08 09:53:00
5:13 AM,20.7,19.6,96,30.18,10.0,Calm,Calm,-,N/A,,Clear,0,2012-11-08 10:13:00
5:33 AM,20.7,19.6,96,30.19,10.0,Calm,Calm,-,N/A,,Clear,0,2012-11-08 10:33:00
5:53 AM,20.7,19.6,96,30.19,10.0,Calm,Calm,-,N/A,,Clear,0,2012-11-08 10:53:00
6:13 AM,20.7,19.6,96,30.19,10.0,Calm,Calm,-,N/A,,Clear,0,2012-11-08 11:13:00
6:33 AM,20.5,19.4,96,30.19,10.0,Calm,Calm,-,N/A,,Clear,0,2012-11-08 11:33:00
6:53 AM,20.5,19.4,96,30.19,10.0,Calm,Calm,-,N/A,,Clear,0,2012-11-08 11:53:00
7:13 AM,20.1,19.0,96,30.20,10.0,Calm,Calm,-,N/A,,Clear,0,2012-11-08 12:13:00
7:53 AM,21.6,20.5,96,30.21,10.0,Calm,Calm,-,N/A,,Mostly Cloudy,0,2012-11-08 12:53:00
8:13 AM,24.4,23.4,96,30.21,7.0,Calm,Calm,-,N/A,,Overcast,0,2012-11-08 13:13:00
8:34 AM,26.1,25.0,96,30.21,7.0,Calm,Calm,-,N/A,,Overcast,0,2012-11-08 13:34:00
8:53 AM,28.2,26.6,94,30.21,7.0,Calm,Calm,-,N/A,,Overcast,0,2012-11-08 13:53:00
9:13 AM,29.3,27.3,92,30.21,7.0,Calm,Calm,-,N/A,,Overcast,0,2012-11-08 14:13:00
9:34 AM,30.4,28.6,93,30.21,7.0,Calm,Calm,-,N/A,,Overcast,0,2012-11-08 14:34:00
9:53 AM,31.6,30.0,94,30.21,7.0,Calm,Calm,-,N/A,,Overcast,0,2012-11-08 14:53:00
10:13 AM,32.9,31.5,94,30.21,7.0,Calm,Calm,-,N/A,,Overcast,0,2012-11-08 15:13:00
10:33 AM,33.8,32.0,93,30.21,7.0,Calm,Calm,-,N/A,,Overcast,0,2012-11-08 15:33:00
10:53 AM,34.7,31.8,89,30.21,10.0,Calm,Calm,-,N/A,,Overcast,0,2012-11-08 15:53:00
11:13 AM,36.3,31.8,84,30.20,10.0,South,3.5,-,N/A,,Overcast,190,2012-11-08 16:13:00
11:33 AM,37.6,32.2,81,30.20,10.0,South,3.5,-,N/A,,Overcast,170,2012-11-08 16:33:00
11:54 AM,39.2,32.0,75,30.18,7.0,South,3.5,-,N/A,,Overcast,190,2012-11-08 16:54:00
12:13 PM,40.3,32.0,72,30.17,10.0,SSW,3.5,-,N/A,,Overcast,210,2012-11-08 17:13:00
12:33 PM,41.2,32.0,70,30.17,10.0,SW,5.8,-,N/A,,Overcast,220,2012-11-08 17:33:00
12:54 PM,42.1,32.0,67,30.17,10.0,SW,5.8,-,N/A,,Overcast,230,2012-11-08 17:54:00
1:13 PM,42.1,31.8,67,30.16,10.0,South,3.5,-,N/A,,Overcast,190,2012-11-08 18:13:00
1:33 PM,43.3,32.0,64,30.15,10.0,SSW,5.8,-,N/A,,Overcast,200,2012-11-08 18:33:00
1:54 PM,43.7,31.8,63,30.15,10.0,WSW,4.6,-,N/A,,Overcast,240,2012-11-08 18:54:00
2:13 PM,44.1,32.0,63,30.14,10.0,SSW,6.9,-,N/A,,Overcast,200,2012-11-08 19:13:00
2:33 PM,44.4,32.0,62,30.14,10.0,SSW,4.6,-,N/A,,Overcast,200,2012-11-08 19:33:00
2:54 PM,44.2,31.6,61,30.14,10.0,SSW,5.8,-,N/A,,Overcast,210,2012-11-08 19:54:00
3:13 PM,44.6,31.8,61,30.13,10.0,SSW,4.6,-,N/A,,Overcast,200,2012-11-08 20:13:00
3:34 PM,44.8,32.0,61,30.13,10.0,South,5.8,-,N/A,,Overcast,190,2012-11-08 20:34:00
3:53 PM,45.0,32.2,61,30.13,10.0,SW,4.6,-,N/A,,Overcast,220,2012-11-08 20:53:00
4:13 PM,45.0,32.0,60,30.12,10.0,SSE,3.5,-,N/A,,Overcast,160,2012-11-08 21:13:00
4:34 PM,44.6,32.0,61,30.12,10.0,Calm,Calm,-,N/A,,Overcast,0,2012-11-08 21:34:00
4:53 PM,44.6,32.0,61,30.12,7.0,Calm,Calm,-,N/A,,Overcast,0,2012-11-08 21:53:00
5:13 PM,44.1,32.2,63,30.12,10.0,Calm,Calm,-,N/A,,Overcast,0,2012-11-08 22:13:00
5:34 PM,43.7,32.0,63,30.12,10.0,Calm,Calm,-,N/A,,Overcast,0,2012-11-08 22:34:00
5:53 PM,42.1,32.5,69,30.12,10.0,Calm,Calm,-,N/A,,Overcast,0,2012-11-08 22:53:00
6:13 PM,40.6,32.5,73,30.12,10.0,Calm,Calm,-,N/A,,Overcast,0,2012-11-08 23:13:00
6:34 PM,39.7,32.4,75,30.12,10.0,Calm,Calm,-,N/A,,Overcast,0,2012-11-08 23:34:00
6:53 PM,39.7,33.3,78,30.11,10.0,Calm,Calm,-,N/A,,Overcast,0,2012-11-08 23:53:00
7:13 PM,39.7,32.2,74,30.11,10.0,Calm,Calm,-,N/A,,Overcast,0,2012-11-09 00:13:00
7:34 PM,39.4,32.7,77,30.10,10.0,South,3.5,-,N/A,,Overcast,170,2012-11-09 00:34:00
7:53 PM,39.2,32.0,75,30.10,10.0,Calm,Calm,-,N/A,,Mostly Cloudy,0,2012-11-09 00:53:00
8:14 PM,36.7,31.6,82,30.10,10.0,Calm,Calm,-,N/A,,Mostly Cloudy,0,2012-11-09 01:14:00
8:33 PM,35.4,31.8,87,30.11,10.0,Calm,Calm,-,N/A,,Overcast,0,2012-11-09 01:33:00
8:53 PM,35.8,31.8,86,30.10,10.0,Calm,Calm,-,N/A,,Overcast,0,2012-11-09 01:53:00
9:14 PM,36.0,32.5,87,30.11,10.0,Calm,Calm,-,N/A,,Overcast,0,2012-11-09 02:14:00
9:33 PM,37.4,32.9,84,30.11,10.0,Calm,Calm,-,N/A,,Overcast,0,2012-11-09 02:33:00
9:53 PM,38.8,32.9,79,30.11,10.0,SW,3.5,-,N/A,,Overcast,220,2012-11-09 02:53:00
10:13 PM,40.1,33.1,76,30.10,10.0,SW,3.5,-,N/A,,Overcast,220,2012-11-09 03:13:00
10:33 PM,39.7,32.4,75,30.10,10.0,SW,3.5,-,N/A,,Overcast,220,2012-11-09 03:33:00
10:54 PM,39.2,32.2,76,30.10,10.0,Calm,Calm,-,N/A,,Mostly Cloudy,0,2012-11-09 03:54:00
11:13 PM,38.1,32.0,79,30.10,7.0,Calm,Calm,-,N/A,,Mostly Cloudy,0,2012-11-09 04:13:00
11:33 PM,38.5,32.7,80,30.10,7.0,Calm,Calm,-,N/A,,Overcast,0,2012-11-09 04:33:00
11:53 PM,39.0,33.3,80,30.10,7.0,Calm,Calm,-,N/A,,Scattered Clouds,0,2012-11-09 04:53:00